Time;durP1;ratioP1;P1;durP2;ratioP2;P2;SDS_P1;SDS_P2;PMS_P1;PMS_P2;Temp;Humidity;BMP_temperature;BMP_pressure;BME280_temperature;BME280_humidity;BME280_pressure;Samples;Min_cycle;Max_cycle;Signal;HPM_P1;HPM_P2
2023/06/27 00:02:20;;;;;;;1.25;1.25;;;14.60;99.90;;;;;;5122143;27;20047;-83
2023/06/27 00:04:47;;;;;;;1.20;1.20;;;14.50;99.90;;;;;;5123081;27;20046;-83
2023/06/27 00:07:13;;;;;;;1.20;1.20;;;14.50;99.90;;;;;;5118161;27;20134;-84
2023/06/27 00:09:38;;;;;;;1.20;1.20;;;14.40;99.90;;;;;;5118715;27;20049;-83
2023/06/27 00:12:06;;;;;;;1.17;1.17;;;14.30;99.90;;;;;;5132871;27;20137;-84
2023/06/27 00:14:32;;;;;;;1.13;1.13;;;14.30;99.90;;;;;;5118963;27;20643;-83
2023/06/27 00:17:00;;;;;;;1.15;1.15;;;14.30;99.90;;;;;;5119867;27;20789;-84
2023/06/27 00:19:26;;;;;;;1.13;1.13;;;14.30;99.90;;;;;;5119511;27;20430;-84
2023/06/27 00:21:51;;;;;;;1.13;1.13;;;14.30;99.90;;;;;;5124212;27;20051;-84
2023/06/27 00:24:17;;;;;;;1.05;1.05;;;14.30;99.90;;;;;;5104438;27;20061;-83
2023/06/27 00:26:43;;;;;;;1.10;1.10;;;14.30;99.90;;;;;;5116793;27;20047;-84
2023/06/27 00:29:08;;;;;;;1.10;1.10;;;14.20;99.90;;;;;;5126452;27;20551;-83
2023/06/27 00:31:34;;;;;;;1.10;1.10;;;14.20;99.90;;;;;;5115493;27;20050;-84
2023/06/27 00:34:00;;;;;;;1.15;1.15;;;14.20;99.90;;;;;;5125929;27;20049;-83
2023/06/27 00:36:25;;;;;;;1.20;1.20;;;14.10;99.90;;;;;;5112706;27;20043;-83
2023/06/27 00:38:51;;;;;;;1.13;1.13;;;14.10;99.90;;;;;;5123539;27;20062;-83
2023/06/27 00:41:17;;;;;;;1.10;1.10;;;14.20;99.90;;;;;;5118438;27;20384;-83
2023/06/27 00:43:42;;;;;;;1.10;1.10;;;14.20;99.90;;;;;;5119734;27;20100;-83
2023/06/27 00:46:10;;;;;;;1.20;1.20;;;14.00;99.90;;;;;;5126714;27;20395;-83
2023/06/27 00:48:36;;;;;;;1.10;1.10;;;13.90;99.90;;;;;;5117853;27;20135;-82
2023/06/27 00:51:03;;;;;;;1.10;1.10;;;13.90;99.90;;;;;;5126049;27;20730;-83
2023/06/27 00:53:29;;;;;;;1.00;1.00;;;13.80;99.90;;;;;;5119738;27;20625;-84
2023/06/27 00:55:55;;;;;;;1.10;1.10;;;13.80;99.90;;;;;;5123525;27;20039;-83
2023/06/27 00:58:21;;;;;;;1.02;1.02;;;13.80;99.90;;;;;;5121994;27;20108;-83
2023/06/27 01:00:50;;;;;;;1.00;1.00;;;13.80;99.90;;;;;;5118868;27;20050;-84
2023/06/27 01:03:15;;;;;;;1.10;1.10;;;13.80;99.90;;;;;;5122285;27;20063;-84
2023/06/27 01:05:42;;;;;;;1.00;1.00;;;13.80;99.90;;;;;;5119743;27;20040;-84
2023/06/27 01:08:27;;;;;;;1.00;1.00;;;13.80;99.90;;;;;;5118670;27;20051;-84
2023/06/27 01:11:00;;;;;;;1.02;1.02;;;13.80;99.90;;;;;;5119425;27;20051;-84
2023/06/27 01:13:47;;;;;;;1.10;1.10;;;13.70;99.90;;;;;;5118800;27;20050;-84
2023/06/27 01:16:14;;;;;;;1.25;1.25;;;13.80;99.90;;;;;;5117541;27;20610;-84
2023/06/27 01:18:42;;;;;;;1.20;1.20;;;13.80;99.90;;;;;;5108692;27;20054;-84
2023/06/27 01:21:10;;;;;;;1.10;1.10;;;13.90;99.90;;;;;;5121304;27;20476;-84
2023/06/27 01:23:53;;;;;;;1.20;1.20;;;13.80;99.90;;;;;;5122358;27;20099;-84
2023/06/27 01:26:18;;;;;;;1.27;1.27;;;13.80;99.90;;;;;;5123868;27;20046;-84
2023/06/27 01:28:44;;;;;;;1.20;1.20;;;13.80;99.90;;;;;;5124296;27;20043;-85
2023/06/27 01:31:36;;;;;;;1.30;1.27;;;13.70;99.90;;;;;;5127334;27;20049;-84
2023/06/27 01:34:14;;;;;;;1.35;1.33;;;13.60;99.90;;;;;;5121696;27;20057;-84
2023/06/27 01:36:50;;;;;;;1.25;1.25;;;13.70;99.90;;;;;;5118047;27;20129;-84
2023/06/27 01:39:17;;;;;;;1.27;1.27;;;13.70;99.90;;;;;;5121139;27;20077;-84
2023/06/27 01:41:47;;;;;;;1.30;1.30;;;13.70;99.90;;;;;;5123451;27;20043;-84
2023/06/27 01:44:14;;;;;;;1.40;1.35;;;13.70;99.90;;;;;;5122171;27;20050;-83
2023/06/27 01:46:40;;;;;;;1.30;1.30;;;13.70;99.90;;;;;;5119750;27;20039;-84
2023/06/27 01:49:08;;;;;;;1.48;1.40;;;13.70;99.90;;;;;;5121600;27;20396;-83
2023/06/27 01:51:33;;;;;;;1.40;1.35;;;13.70;99.90;;;;;;5117306;27;20051;-83
2023/06/27 01:53:59;;;;;;;1.50;1.40;;;13.60;99.90;;;;;;5122597;27;20038;-84
2023/06/27 01:56:25;;;;;;;1.55;1.45;;;13.60;99.90;;;;;;5125643;27;20775;-84
2023/06/27 01:58:50;;;;;;;1.60;1.50;;;13.70;99.90;;;;;;5123728;27;20050;-83
2023/06/27 02:01:16;;;;;;;1.50;1.40;;;13.60;99.90;;;;;;5121623;27;20614;-84
2023/06/27 02:03:42;;;;;;;1.63;1.52;;;13.60;99.90;;;;;;5117012;27;20134;-84
2023/06/27 02:06:07;;;;;;;1.63;1.52;;;13.60;99.90;;;;;;5120752;27;20051;-84
2023/06/27 02:08:33;;;;;;;1.63;1.52;;;13.60;99.90;;;;;;5106745;27;20036;-84
2023/06/27 02:10:59;;;;;;;1.67;1.58;;;13.60;99.90;;;;;;5120943;27;20605;-84
2023/06/27 02:13:25;;;;;;;1.80;1.70;;;13.50;99.90;;;;;;5120745;27;20059;-84
2023/06/27 02:15:51;;;;;;;1.83;1.73;;;13.50;99.90;;;;;;5126828;27;20040;-84
2023/06/27 02:18:17;;;;;;;1.90;1.80;;;13.50;99.90;;;;;;5127434;27;20042;-85
2023/06/27 02:20:42;;;;;;;1.92;1.83;;;13.50;99.90;;;;;;5105520;27;20416;-84
2023/06/27 02:23:08;;;;;;;2.13;2.03;;;13.50;99.90;;;;;;5126899;27;20496;-83
2023/06/27 02:25:34;;;;;;;1.90;1.80;;;13.30;99.90;;;;;;5123850;27;20720;-84
2023/06/27 02:27:59;;;;;;;2.05;1.95;;;13.30;99.90;;;;;;5126464;27;20073;-84
2023/06/27 02:30:25;;;;;;;2.00;1.90;;;13.40;99.90;;;;;;5122622;27;20043;-84
2023/06/27 02:32:50;;;;;;;2.00;1.90;;;13.30;99.90;;;;;;5125424;27;20087;-85
2023/06/27 02:35:16;;;;;;;1.98;1.88;;;13.40;99.90;;;;;;5124796;27;20044;-85
2023/06/27 02:37:43;;;;;;;1.92;1.83;;;13.40;99.90;;;;;;5133750;27;20039;-83
2023/06/27 02:40:09;;;;;;;2.08;1.98;;;13.40;99.90;;;;;;5127733;27;20062;-85
2023/06/27 02:42:35;;;;;;;2.05;1.95;;;13.40;99.90;;;;;;5114012;27;20051;-84
2023/06/27 02:45:01;;;;;;;1.90;1.80;;;13.20;99.90;;;;;;5121012;27;20135;-84
2023/06/27 02:47:26;;;;;;;2.00;1.90;;;13.20;99.90;;;;;;5128952;27;20051;-84
2023/06/27 02:49:52;;;;;;;2.00;1.90;;;13.30;99.90;;;;;;5129065;27;20125;-84
2023/06/27 02:52:17;;;;;;;2.10;2.00;;;13.30;99.90;;;;;;5127066;27;20442;-84
2023/06/27 02:54:43;;;;;;;2.20;2.10;;;13.20;99.90;;;;;;5128258;27;20504;-84
2023/06/27 02:57:11;;;;;;;2.10;2.00;;;13.20;99.90;;;;;;5130481;27;20046;-84
2023/06/27 02:59:37;;;;;;;2.30;2.20;;;13.30;99.90;;;;;;5123669;27;20043;-83
2023/06/27 03:02:02;;;;;;;2.20;2.10;;;13.20;99.90;;;;;;5115052;27;20058;-83
2023/06/27 03:04:28;;;;;;;2.20;2.10;;;13.20;99.90;;;;;;5131377;27;20043;-83
2023/06/27 03:06:54;;;;;;;2.28;2.17;;;13.20;99.90;;;;;;5126657;27;20039;-84
2023/06/27 03:09:19;;;;;;;2.40;2.30;;;13.20;99.90;;;;;;5133586;27;20046;-83
2023/06/27 03:11:45;;;;;;;2.30;2.20;;;13.20;99.90;;;;;;5124080;27;20080;-84
2023/06/27 03:14:18;;;;;;;2.30;2.20;;;13.20;99.90;;;;;;5128505;27;20039;-84
2023/06/27 03:16:43;;;;;;;2.50;2.40;;;13.20;99.90;;;;;;5127933;27;20104;-84
2023/06/27 03:19:09;;;;;;;2.40;2.30;;;13.20;99.90;;;;;;5131215;27;20051;-85
2023/06/27 03:21:35;;;;;;;2.50;2.40;;;13.20;99.90;;;;;;5104382;27;20055;-84
2023/06/27 03:24:00;;;;;;;2.40;2.30;;;13.10;99.90;;;;;;5124829;27;20047;-85
2023/06/27 03:26:28;;;;;;;2.45;2.35;;;13.10;99.90;;;;;;5125923;27;20403;-84
2023/06/27 03:28:54;;;;;;;2.50;2.40;;;13.20;99.90;;;;;;5128206;27;20122;-84
2023/06/27 03:31:20;;;;;;;2.50;2.40;;;13.20;99.90;;;;;;5128610;27;20046;-84
2023/06/27 03:33:46;;;;;;;2.65;2.53;;;13.20;99.90;;;;;;5126266;27;20043;-83
2023/06/27 03:36:12;;;;;;;2.60;2.50;;;13.20;99.90;;;;;;5128889;27;20159;-85
2023/06/27 03:38:38;;;;;;;2.60;2.50;;;13.20;99.90;;;;;;5124564;27;20148;-83
2023/06/27 03:41:03;;;;;;;2.80;2.60;;;13.20;99.90;;;;;;5125543;27;20130;-84
2023/06/27 03:43:29;;;;;;;2.55;2.45;;;13.10;99.90;;;;;;5126959;27;20529;-83
2023/06/27 03:45:55;;;;;;;2.65;2.53;;;13.10;99.90;;;;;;5125478;27;20071;-84
2023/06/27 03:48:20;;;;;;;2.75;2.58;;;13.20;99.90;;;;;;5129417;27;20157;-84
2023/06/27 03:50:46;;;;;;;2.90;2.70;;;13.20;99.90;;;;;;5128505;27;20077;-84
2023/06/27 03:53:12;;;;;;;2.83;2.63;;;13.20;99.90;;;;;;5108765;27;20069;-83
2023/06/27 03:55:40;;;;;;;2.90;2.70;;;13.20;99.90;;;;;;5125669;27;20114;-85
2023/06/27 03:58:06;;;;;;;2.92;2.72;;;13.20;99.90;;;;;;5129250;27;20118;-84
2023/06/27 04:00:32;;;;;;;2.88;2.67;;;13.20;99.90;;;;;;5130585;27;20042;-84
2023/06/27 04:02:58;;;;;;;3.10;2.90;;;13.30;99.90;;;;;;5123719;27;20377;-84
2023/06/27 04:05:24;;;;;;;2.90;2.70;;;13.40;99.90;;;;;;5124333;27;20081;-84
2023/06/27 04:07:49;;;;;;;3.00;2.80;;;13.40;99.90;;;;;;5115367;27;20040;-84
2023/06/27 04:10:15;;;;;;;3.03;2.83;;;13.50;99.90;;;;;;5128359;27;20039;-84
2023/06/27 04:12:41;;;;;;;2.97;2.78;;;13.50;99.90;;;;;;5126154;27;20043;-83
2023/06/27 04:15:07;;;;;;;3.00;2.80;;;13.50;99.90;;;;;;5124082;27;20035;-84
2023/06/27 04:17:33;;;;;;;3.00;2.80;;;13.60;99.90;;;;;;5104297;27;20047;-84
2023/06/27 04:19:58;;;;;;;1.45;0.50;;;13.60;99.90;;;;;;5128618;27;20035;-83
2023/06/27 04:22:24;;;;;;;3.08;2.88;;;13.60;99.90;;;;;;5121156;27;20039;-84
2023/06/27 04:24:50;;;;;;;2.97;2.78;;;13.60;99.90;;;;;;5128288;27;20044;-83
2023/06/27 04:27:15;;;;;;;2.85;2.65;;;13.70;99.90;;;;;;5123900;27;20408;-83
2023/06/27 04:29:41;;;;;;;3.03;2.83;;;13.70;99.90;;;;;;5118797;27;20039;-82
2023/06/27 04:32:07;;;;;;;3.10;2.90;;;13.80;99.90;;;;;;5120390;27;20053;-83
2023/06/27 04:34:36;;;;;;;3.10;2.90;;;13.90;99.90;;;;;;5129516;27;20553;-83
2023/06/27 04:37:03;;;;;;;3.10;2.90;;;13.90;99.90;;;;;;5125835;27;20047;-84
2023/06/27 04:39:29;;;;;;;3.10;2.90;;;14.00;99.90;;;;;;5125199;27;20047;-83
2023/06/27 04:41:56;;;;;;;2.90;2.70;;;14.20;99.90;;;;;;5122823;27;20051;-83
2023/06/27 04:44:22;;;;;;;3.10;2.90;;;14.40;99.90;;;;;;5125383;27;20107;-84
2023/06/27 04:46:48;;;;;;;3.33;3.13;;;16.50;99.90;;;;;;5121585;27;20051;-83
2023/06/27 04:49:14;;;;;;;3.40;3.20;;;16.90;99.90;;;;;;5127776;27;20096;-84
2023/06/27 04:51:40;;;;;;;3.20;3.00;;;19.00;99.90;;;;;;5117021;27;20043;-84
2023/06/27 04:54:05;;;;;;;2.65;2.53;;;20.80;99.90;;;;;;5126429;27;20674;-84
2023/06/27 04:56:31;;;;;;;2.60;2.50;;;22.00;99.90;;;;;;5124153;27;20043;-84
2023/06/27 04:58:57;;;;;;;2.25;2.15;;;23.00;99.90;;;;;;5119691;27;20329;-85
2023/06/27 05:01:22;;;;;;;1.75;1.65;;;23.30;99.90;;;;;;5117734;27;20130;-85
2023/06/27 05:03:48;;;;;;;1.30;1.30;;;23.70;99.90;;;;;;5127681;27;20254;-86
2023/06/27 05:06:14;;;;;;;1.50;1.40;;;24.30;99.90;;;;;;5123912;27;20129;-87
2023/06/27 05:08:40;;;;;;;1.55;1.45;;;25.10;99.90;;;;;;5125104;27;20832;-86
2023/06/27 05:11:05;;;;;;;1.80;1.70;;;25.30;99.90;;;;;;5129398;27;20039;-87
2023/06/27 05:13:31;;;;;;;1.98;1.88;;;26.10;99.90;;;;;;5122566;27;20047;-85
2023/06/27 05:15:57;;;;;;;2.15;2.05;;;26.10;99.90;;;;;;5106295;27;20076;-86
2023/06/27 05:18:25;;;;;;;2.33;2.22;;;26.30;99.90;;;;;;5123797;27;20043;-85
2023/06/27 05:20:50;;;;;;;2.60;2.42;;;26.30;99.90;;;;;;5127840;27;20047;-85
2023/06/27 05:23:16;;;;;;;2.50;2.40;;;27.10;99.90;;;;;;5123904;27;20107;-86
2023/06/27 05:25:41;;;;;;;2.05;1.95;;;27.10;99.90;;;;;;5123658;27;20050;-86
2023/06/27 05:28:08;;;;;;;0.30;0.30;;;27.20;99.90;;;;;;5127259;27;20046;-86
2023/06/27 05:30:33;;;;;;;2.47;2.38;;;27.70;99.90;;;;;;5108074;27;20046;-85
2023/06/27 05:32:59;;;;;;;2.83;2.63;;;27.60;99.90;;;;;;5126929;27;20043;-86
2023/06/27 05:35:24;;;;;;;2.78;2.60;;;28.30;99.90;;;;;;5123783;27;20049;-84
2023/06/27 05:37:51;;;;;;;2.58;2.47;;;27.40;99.90;;;;;;5119327;27;20051;-85
2023/06/27 05:40:16;;;;;;;2.45;2.35;;;28.10;99.90;;;;;;5127449;27;20512;-85
2023/06/27 05:42:42;;;;;;;2.50;2.40;;;28.40;99.90;;;;;;5121238;27;20049;-86
2023/06/27 05:45:09;;;;;;;2.20;2.10;;;28.20;99.90;;;;;;5120760;27;20495;-87
2023/06/27 05:47:34;;;;;;;2.20;2.10;;;28.10;99.90;;;;;;5123249;27;20054;-86
2023/06/27 05:50:00;;;;;;;2.30;2.20;;;26.30;99.90;;;;;;5121105;27;20040;-86
2023/06/27 05:52:28;;;;;;;2.30;2.20;;;24.10;99.90;;;;;;5123913;27;20054;-85
2023/06/27 05:54:54;;;;;;;2.25;2.15;;;23.90;99.90;;;;;;5114190;27;20053;-87
2023/06/27 05:57:20;;;;;;;2.40;2.30;;;23.30;99.90;;;;;;5118201;27;20074;-87
2023/06/27 05:59:45;;;;;;;2.47;2.30;;;23.10;99.90;;;;;;5111328;27;20047;-86
2023/06/27 06:02:11;;;;;;;2.38;2.28;;;22.80;99.90;;;;;;5121034;27;20176;-85
2023/06/27 06:04:37;;;;;;;2.25;2.15;;;23.00;99.90;;;;;;5118978;27;20039;-86
2023/06/27 06:07:03;;;;;;;2.67;2.55;;;22.80;99.90;;;;;;5117132;27;20043;-85
2023/06/27 06:09:30;;;;;;;2.30;2.20;;;22.90;99.90;;;;;;5118929;27;20588;-84
2023/06/27 06:11:56;;;;;;;2.20;2.10;;;22.30;99.90;;;;;;5117426;27;20208;-80
2023/06/27 06:14:22;;;;;;;2.33;2.22;;;22.30;99.90;;;;;;5126356;27;20059;-85
2023/06/27 06:16:48;;;;;;;2.35;2.25;;;22.40;99.90;;;;;;5126540;27;20046;-85
2023/06/27 06:19:14;;;;;;;2.35;2.25;;;22.30;99.90;;;;;;5128103;27;20390;-84
2023/06/27 06:21:40;;;;;;;2.45;2.35;;;22.40;99.90;;;;;;5134143;27;20043;-85
2023/06/27 06:24:06;;;;;;;2.30;2.20;;;22.60;99.90;;;;;;5124230;27;20050;-85
2023/06/27 06:26:32;;;;;;;2.33;2.22;;;22.60;99.90;;;;;;5126551;27;20046;-85
2023/06/27 06:43:47;;;;;;;2.33;2.22;;;23.10;99.90;;;;;;5132143;27;20057;-86
2023/06/27 06:46:14;;;;;;;2.40;2.30;;;23.20;99.90;;;;;;5123756;27;20036;-86
2023/06/27 06:48:39;;;;;;;2.60;2.50;;;23.30;99.90;;;;;;5131506;27;20069;-84
2023/06/27 06:51:05;;;;;;;2.40;2.30;;;23.00;99.90;;;;;;5130181;27;20389;-81
2023/06/27 06:53:31;;;;;;;2.28;2.17;;;23.30;99.90;;;;;;5128071;27;20074;-84
2023/06/27 06:55:56;;;;;;;2.58;2.47;;;23.20;99.90;;;;;;5125599;27;20122;-86
2023/06/27 06:58:22;;;;;;;2.35;2.25;;;23.40;99.90;;;;;;5129113;27;20114;-86
2023/06/27 07:00:48;;;;;;;2.38;2.28;;;23.60;99.90;;;;;;5113809;27;20046;-86
2023/06/27 07:03:14;;;;;;;2.13;2.03;;;23.60;99.90;;;;;;5124239;27;20071;-86
2023/06/27 07:05:42;;;;;;;2.22;2.13;;;23.60;99.90;;;;;;5130991;27;20062;-86
2023/06/27 07:08:08;;;;;;;1.80;1.70;;;24.10;99.90;;;;;;5126758;27;20047;-87
2023/06/27 07:10:34;;;;;;;2.40;2.30;;;24.10;99.90;;;;;;5125860;27;20408;-86
2023/06/27 07:13:01;;;;;;;0.30;0.30;;;23.80;99.90;;;;;;5129251;27;20043;-85
2023/06/27 07:15:27;;;;;;;2.40;2.30;;;24.00;99.90;;;;;;5131128;27;20058;-87
2023/06/27 07:17:53;;;;;;;2.35;2.25;;;23.50;99.90;;;;;;5127899;27;20092;-87
2023/06/27 07:20:20;;;;;;;0.90;0.90;;;23.40;99.90;;;;;;5111490;27;20070;-87
2023/06/27 07:22:46;;;;;;;1.85;1.75;;;23.30;99.90;;;;;;5133909;27;20507;-87
2023/06/27 07:25:12;;;;;;;0.45;0.45;;;23.20;99.90;;;;;;5129626;27;20031;-86
2023/06/27 07:27:38;;;;;;;2.67;2.55;;;23.10;99.90;;;;;;5125590;27;20392;-87
2023/06/27 07:30:04;;;;;;;2.83;2.65;;;23.30;99.90;;;;;;5126007;27;20051;-86
2023/06/27 07:32:30;;;;;;;0.40;0.40;;;23.30;99.90;;;;;;5133947;27;20047;-87
2023/06/27 07:34:55;;;;;;;0.40;0.40;;;23.60;99.90;;;;;;5105624;27;20130;-87
2023/06/27 07:37:21;;;;;;;2.95;2.75;;;23.80;99.90;;;;;;5136418;27;20049;-85
2023/06/27 07:39:47;;;;;;;2.75;2.60;;;23.60;99.90;;;;;;5125704;27;20039;-83
2023/06/27 07:42:17;;;;;;;2.33;2.22;;;24.00;99.90;;;;;;5131239;27;20129;-88
2023/06/27 07:44:43;;;;;;;1.27;1.25;;;23.90;99.90;;;;;;5130955;27;20689;-86
2023/06/27 07:47:09;;;;;;;2.05;1.95;;;23.90;99.90;;;;;;5138990;27;20039;-86
2023/06/27 07:49:37;;;;;;;0.30;0.30;;;24.20;99.90;;;;;;5127105;27;20047;-86
2023/06/27 07:52:07;;;;;;;0.30;0.30;;;24.80;99.90;;;;;;5128344;27;20043;-86
2023/06/27 07:54:33;;;;;;;0.98;0.98;;;24.20;99.50;;;;;;5113014;27;20050;-87
2023/06/27 07:56:59;;;;;;;0.30;0.30;;;24.00;99.90;;;;;;5126980;27;20438;-86
2023/06/27 07:59:24;;;;;;;0.30;0.30;;;23.50;99.90;;;;;;5129857;27;20396;-86
2023/06/27 08:01:50;;;;;;;3.05;2.85;;;23.10;99.90;;;;;;5129158;27;20377;-86
2023/06/27 08:04:16;;;;;;;2.08;1.98;;;23.10;99.90;;;;;;5096008;27;20051;-87
2023/06/27 08:06:42;;;;;;;0.30;0.30;;;23.10;99.90;;;;;;5121560;27;20081;-86
2023/06/27 08:09:08;;;;;;;3.47;3.28;;;23.00;99.90;;;;;;5121616;27;20134;-87
2023/06/27 08:11:34;;;;;;;2.15;2.05;;;22.70;99.90;;;;;;5119994;27;20465;-87
2023/06/27 08:14:00;;;;;;;2.78;2.60;;;22.70;99.90;;;;;;5126378;27;20043;-87
2023/06/27 08:16:25;;;;;;;1.85;1.75;;;22.60;99.90;;;;;;5129667;27;20082;-87
2023/06/27 08:18:52;;;;;;;0.30;0.30;;;22.10;99.90;;;;;;5106488;27;20043;-89
2023/06/27 08:21:17;;;;;;;3.25;3.05;;;22.10;99.90;;;;;;5108009;27;20047;-88
2023/06/27 08:23:44;;;;;;;2.97;2.78;;;22.00;99.90;;;;;;5109914;27;20054;-86
2023/06/27 08:26:16;;;;;;;2.95;2.75;;;21.90;99.90;;;;;;5123224;27;20489;-87
2023/06/27 08:28:43;;;;;;;2.65;2.53;;;21.90;99.90;;;;;;5127105;27;20066;-87
2023/06/27 08:31:12;;;;;;;2.58;2.47;;;22.10;99.90;;;;;;5131618;27;20053;-89
2023/06/27 08:33:39;;;;;;;2.47;2.38;;;22.20;99.90;;;;;;5119744;27;20067;-87
2023/06/27 08:36:05;;;;;;;2.45;2.35;;;22.70;99.90;;;;;;5121854;27;20044;-87
2023/06/27 08:38:31;;;;;;;2.33;2.22;;;23.00;99.90;;;;;;5124464;27;20043;-87
2023/06/27 08:40:57;;;;;;;2.47;2.38;;;23.20;99.90;;;;;;5122879;27;20035;-88
2023/06/27 08:43:23;;;;;;;2.80;2.63;;;23.50;99.90;;;;;;5121636;27;20055;-86
2023/06/27 08:45:51;;;;;;;2.90;2.70;;;23.90;99.90;;;;;;5128229;27;20053;-86
2023/06/27 08:48:17;;;;;;;0.30;0.30;;;24.20;99.90;;;;;;5122537;27;20055;-89
2023/06/27 08:50:44;;;;;;;3.22;3.03;;;23.50;99.90;;;;;;5135128;27;20054;-88
2023/06/27 08:53:19;;;;;;;2.78;2.60;;;24.10;99.90;;;;;;5109631;27;20038;-86
2023/06/27 08:56:04;;;;;;;2.25;2.15;;;24.30;98.90;;;;;;5124354;27;20050;-88
2023/06/27 08:58:46;;;;;;;2.85;2.65;;;23.70;98.70;;;;;;5107808;27;20533;-87
2023/06/27 09:01:12;;;;;;;0.30;0.30;;;23.60;99.40;;;;;;5119869;27;20110;-84
2023/06/27 09:03:38;;;;;;;2.70;2.55;;;23.40;99.10;;;;;;5119871;27;20086;-87
2023/06/27 09:06:05;;;;;;;0.30;0.30;;;22.90;99.00;;;;;;5127046;27;20567;-84
2023/06/27 09:08:35;;;;;;;2.50;2.40;;;23.50;99.50;;;;;;5131224;27;20050;-88
2023/06/27 09:11:01;;;;;;;0.30;0.30;;;24.10;99.70;;;;;;5123525;27;20130;-85
2023/06/27 09:13:27;;;;;;;2.42;2.33;;;24.00;97.80;;;;;;5127715;27;20073;-87
2023/06/27 09:15:53;;;;;;;0.75;0.75;;;24.00;98.30;;;;;;5119881;27;20058;-88
2023/06/27 09:18:19;;;;;;;1.27;1.25;;;24.20;98.80;;;;;;5111384;27;20039;-90
2023/06/27 09:20:45;;;;;;;0.75;0.75;;;24.00;98.00;;;;;;5132367;27;20605;-87
2023/06/27 09:23:12;;;;;;;0.30;0.30;;;23.70;98.10;;;;;;5122433;27;20072;-86
2023/06/27 09:25:38;;;;;;;0.30;0.30;;;23.40;98.10;;;;;;5121059;27;20119;-86
2023/06/27 09:28:17;;;;;;;1.20;1.20;;;23.50;98.60;;;;;;5127951;27;20721;-85
2023/06/27 09:31:02;;;;;;;0.30;0.30;;;23.30;98.20;;;;;;5126517;27;20041;-88
2023/06/27 09:33:27;;;;;;;1.75;1.65;;;23.00;98.30;;;;;;5119359;27;20488;-87
2023/06/27 09:35:53;;;;;;;1.67;1.58;;;23.10;98.90;;;;;;5126584;27;20049;-86
2023/06/27 09:38:20;;;;;;;0.30;0.30;;;23.20;98.80;;;;;;5123453;27;20047;-89
2023/06/27 09:40:48;;;;;;;1.63;1.52;;;23.30;98.60;;;;;;5127320;27;20062;-85
2023/06/27 09:43:15;;;;;;;1.73;1.63;;;23.40;98.70;;;;;;5126984;27;20047;-86
2023/06/27 09:45:40;;;;;;;1.25;1.25;;;23.50;99.40;;;;;;5106482;27;20043;-89
2023/06/27 09:48:10;;;;;;;0.30;0.30;;;23.40;98.80;;;;;;5125615;27;20035;-88
2023/06/27 09:50:37;;;;;;;0.30;0.30;;;23.00;98.40;;;;;;5124236;27;20047;-85
2023/06/27 09:53:03;;;;;;;1.65;1.55;;;23.20;97.80;;;;;;5124629;27;20047;-85
2023/06/27 09:55:29;;;;;;;1.60;1.50;;;23.30;98.90;;;;;;5118605;27;20118;-85
2023/06/27 09:57:57;;;;;;;0.30;0.30;;;23.40;99.50;;;;;;5119209;27;20047;-86
2023/06/27 10:00:29;;;;;;;0.30;0.30;;;23.80;99.70;;;;;;5120662;27;20055;-85
2023/06/27 10:02:55;;;;;;;1.60;1.50;;;23.80;99.00;;;;;;5127320;27;20522;-86
2023/06/27 10:05:21;;;;;;;1.30;1.30;;;23.90;99.00;;;;;;5102664;27;20051;-84
2023/06/27 10:07:49;;;;;;;1.23;1.23;;;23.70;98.80;;;;;;5121085;27;20066;-85
2023/06/27 10:10:15;;;;;;;0.30;0.30;;;23.90;98.80;;;;;;5106074;27;20039;-82
2023/06/27 10:12:42;;;;;;;1.17;1.17;;;23.80;98.40;;;;;;5123110;27;20617;-81
2023/06/27 10:15:09;;;;;;;0.30;0.30;;;23.60;97.10;;;;;;5132404;27;20086;-87
2023/06/27 10:17:35;;;;;;;0.30;0.30;;;23.70;97.50;;;;;;5109241;27;20051;-88
2023/06/27 10:20:04;;;;;;;1.08;1.08;;;23.70;97.10;;;;;;5119278;27;20092;-86
2023/06/27 10:22:32;;;;;;;1.10;1.10;;;23.30;96.70;;;;;;5104501;27;20069;-85
2023/06/27 10:25:03;;;;;;;0.93;0.93;;;24.00;97.90;;;;;;5128815;27;20624;-88
2023/06/27 10:27:33;;;;;;;1.17;1.17;;;24.10;97.10;;;;;;5126084;27;20491;-89
2023/06/27 10:30:04;;;;;;;0.32;0.32;;;24.30;97.20;;;;;;5110065;27;20057;-88
2023/06/27 10:32:44;;;;;;;0.30;0.30;;;24.10;97.50;;;;;;5126945;27;20458;-85
2023/06/27 10:35:11;;;;;;;0.32;0.32;;;24.10;97.40;;;;;;5126466;27;20042;-89
2023/06/27 10:37:40;;;;;;;0.30;0.30;;;24.00;96.10;;;;;;5119846;27;20046;-88
2023/06/27 10:40:09;;;;;;;0.30;0.30;;;24.20;96.70;;;;;;5123205;27;20505;-88
2023/06/27 10:42:35;;;;;;;1.25;1.25;;;24.60;96.70;;;;;;5127359;27;20051;-89
2023/06/27 10:45:08;;;;;;;0.30;0.30;;;24.90;95.90;;;;;;5128271;27;20103;-94
2023/06/27 10:47:44;;;;;;;0.30;0.30;;;25.40;97.20;;;;;;5134069;27;20440;-85
2023/06/27 10:50:12;;;;;;;0.30;0.30;;;25.10;96.00;;;;;;5123846;27;20116;-87
2023/06/27 10:52:39;;;;;;;0.40;0.40;;;25.00;96.90;;;;;;5126822;27;20050;-86
2023/06/27 10:55:15;;;;;;;0.30;0.30;;;24.90;96.50;;;;;;5120943;27;20055;-86
2023/06/27 10:57:44;;;;;;;0.30;0.30;;;25.10;95.80;;;;;;5133618;27;20131;-86
2023/06/27 11:00:31;;;;;;;0.30;0.30;;;25.10;95.40;;;;;;5132799;27;20051;-86
2023/06/27 11:02:58;;;;;;;0.30;0.30;;;25.50;96.70;;;;;;5131771;27;20063;-87
2023/06/27 11:05:45;;;;;;;0.30;0.30;;;26.00;97.80;;;;;;5134173;27;20047;-88
2023/06/27 11:08:17;;;;;;;0.30;0.30;;;26.40;97.50;;;;;;5112701;27;20051;-86
2023/06/27 11:10:49;;;;;;;0.30;0.30;;;25.90;95.20;;;;;;5136074;27;20170;-86
2023/06/27 11:13:27;;;;;;;0.30;0.30;;;26.20;94.90;;;;;;5111301;27;20051;-88
2023/06/27 11:15:55;;;;;;;0.30;0.30;;;25.80;94.50;;;;;;5126026;27;20778;-89
2023/06/27 11:18:27;;;;;;;0.30;0.30;;;26.10;96.00;;;;;;5116260;27;20134;-89
2023/06/27 11:20:54;;;;;;;0.30;0.30;;;25.90;94.90;;;;;;5109433;27;20122;-87
2023/06/27 11:23:21;;;;;;;0.30;0.30;;;26.20;93.90;;;;;;5119871;27;20049;-91
2023/06/27 11:25:48;;;;;;;0.20;0.20;;;26.30;94.80;;;;;;5131908;27;20170;-87
2023/06/27 11:28:18;;;;;;;0.30;0.30;;;26.20;95.60;;;;;;5130118;27;20126;-89
2023/06/27 11:30:44;;;;;;;0.30;0.30;;;25.90;95.20;;;;;;5127129;27;20071;-86
2023/06/27 11:33:12;;;;;;;0.30;0.30;;;25.70;94.10;;;;;;5107169;27;20140;-89
2023/06/27 11:35:40;;;;;;;0.22;0.22;;;25.30;94.60;;;;;;5112769;27;20054;-88
2023/06/27 11:38:07;;;;;;;0.30;0.30;;;25.00;94.10;;;;;;5107389;27;20043;-87
2023/06/27 11:40:32;;;;;;;0.30;0.30;;;24.70;94.60;;;;;;5133718;27;20042;-85
2023/06/27 11:43:04;;;;;;;0.30;0.30;;;24.60;95.20;;;;;;5125636;27;20513;-89
2023/06/27 11:45:31;;;;;;;0.30;0.30;;;24.30;95.60;;;;;;5107546;27;20042;-88
2023/06/27 11:47:57;;;;;;;0.30;0.30;;;23.80;96.10;;;;;;5127011;27;20129;-87
2023/06/27 11:50:23;;;;;;;0.30;0.30;;;23.90;96.60;;;;;;5132757;27;20456;-90
2023/06/27 11:52:50;;;;;;;0.30;0.30;;;23.30;96.30;;;;;;5116001;27;20123;-89
2023/06/27 11:55:16;;;;;;;0.30;0.30;;;23.30;97.20;;;;;;5129959;27;20066;-87
2023/06/27 11:57:42;;;;;;;0.45;0.45;;;23.70;98.00;;;;;;5135321;27;20550;-85
2023/06/27 12:00:23;;;;;;;0.32;0.32;;;23.50;94.60;;;;;;5121057;27;20046;-86
2023/06/27 12:02:53;;;;;;;0.30;0.30;;;23.60;97.10;;;;;;5108793;27;20031;-88
2023/06/27 12:05:21;;;;;;;0.30;0.30;;;24.00;97.20;;;;;;5117707;27;20045;-88
2023/06/27 12:07:56;;;;;;;1.15;1.15;;;24.60;96.40;;;;;;5132819;27;20536;-87
2023/06/27 12:10:22;;;;;;;0.77;0.77;;;24.80;96.50;;;;;;5125100;27;20051;-86
2023/06/27 12:12:50;;;;;;;0.30;0.30;;;24.70;96.60;;;;;;5125926;27;20566;-87
2023/06/27 12:15:15;;;;;;;0.75;0.75;;;24.60;97.00;;;;;;5120830;27;20047;-89
2023/06/27 12:17:59;;;;;;;0.30;0.30;;;24.30;96.30;;;;;;5121194;27;20482;-85
2023/06/27 12:20:25;;;;;;;0.67;0.67;;;24.30;96.90;;;;;;5107717;27;20054;-85
2023/06/27 12:22:51;;;;;;;0.90;0.90;;;24.20;96.40;;;;;;5130487;27;20043;-89
2023/06/27 12:25:17;;;;;;;0.30;0.30;;;24.00;96.50;;;;;;5123451;27;20127;-87
2023/06/27 12:27:43;;;;;;;0.30;0.30;;;23.90;96.80;;;;;;5123829;27;20161;-87
2023/06/27 12:30:09;;;;;;;0.50;0.50;;;24.00;96.20;;;;;;5125450;27;20042;-83
2023/06/27 12:32:35;;;;;;;0.55;0.55;;;23.70;95.70;;;;;;5124051;27;20062;-83
2023/06/27 12:35:01;;;;;;;0.32;0.32;;;23.70;96.20;;;;;;5118755;27;20043;-87
2023/06/27 12:37:28;;;;;;;0.30;0.30;;;23.60;96.40;;;;;;5110259;27;20051;-87
2023/06/27 12:39:54;;;;;;;0.30;0.30;;;23.80;96.40;;;;;;5128175;27;20102;-88
2023/06/27 12:42:19;;;;;;;1.02;1.02;;;24.20;97.50;;;;;;5108672;27;20108;-87
2023/06/27 12:44:45;;;;;;;0.32;0.32;;;24.10;95.80;;;;;;5120011;27;20046;-87
2023/06/27 12:47:11;;;;;;;0.40;0.40;;;24.20;96.70;;;;;;5104827;27;20138;-93
2023/06/27 12:49:37;;;;;;;0.80;0.80;;;24.00;96.50;;;;;;5131566;27;20043;-90
2023/06/27 12:52:03;;;;;;;0.35;0.35;;;23.80;96.70;;;;;;5123223;27;20077;-92
2023/06/27 12:54:29;;;;;;;0.30;0.30;;;23.70;95.00;;;;;;5118169;27;20070;-86
2023/06/27 12:56:54;;;;;;;0.30;0.30;;;24.00;96.10;;;;;;5122462;27;20046;-87
2023/06/27 12:59:26;;;;;;;0.88;0.88;;;24.00;96.50;;;;;;5119673;27;20193;-87
2023/06/27 13:02:00;;;;;;;0.57;0.57;;;24.00;96.40;;;;;;5114277;27;20654;-89
2023/06/27 13:04:26;;;;;;;;;;;23.80;95.90;;;;;;5126457;27;20105;-88